ETNL/RLG METAR and TAF weather

Enter ICAO airport designator
Station Type Date Time Source
ETNL METAR 2019/07/18 10:20 UTC NOAA

ETNL 181020Z 15004KT 9999 FEW050 23/09 Q1012 BLU+BLU+


Station Type Date Time Source
ETNL Decoded METAR 2019/07/18 10:20 UTC NOAA

Laage, Germany (ETNL) 53-55N 012-17E 46M
Jul 18, 2019 - 06:20 AM EDT / 2019.07.18 1020 UTC
Wind: from the SSE (150 degrees) at 5 MPH (4 KT):0
Visibility: greater than 7 mile(s):0
Sky conditions: mostly clear
Temperature: 73 F (23 C)
Dew Point: 48 F (9 C)
Relative Humidity: 40%
Pressure (altimeter): 29.88 in. Hg (1012 hPa)
ob: ETNL 181020Z 15004KT 9999 FEW050 23/09 Q1012 BLU+BLU+
cycle: 10

Station Type Date Time Source
ETNL TAF 2019/06/10 05:34 UTC NOAA

TAF ETNL 100400Z 1005/1018 06008KT 9999 NSW BKN100
TEMPO 1005/1018 07012KT 6000 -RA BKN050 OVC100 PROB30 1015/1018 VRB15G30KT 3000 TSRA BKN030CB BY ETGL

Example: see airport list